To NAV CANADA Home Page Login to a new session Search on AWWS site Disclaimer Vers la page française équivalente Tips FAQ What's new on the site To the Forecasts and Observations / NOTAM section To "File a Flight Plan" website Publications and other links Update of the User's profile FIC Telephone Numbers My Weather Data Folder Route Weather Data Regional Weather Data Local Weather Data To the Forecasts and Observations / NOTAM section
Request Generated 11/16/2018 at 01:22:21 UTC . Weather information available at that time is displayed.

METAR/TAF

DEASE LAKE/BC    (show WxCam)

METAR CYDL 160100Z AUTO 34005KT 300V040 9SM OVC030 M05/M08 A3022 RMK SLP269=
SPECI CYDL 160003Z AUTO 02006KT 310V060 9SM OVC028 M05/M08 A3019 RMK SLP258=
METAR CYDL 160000Z AUTO 02003KT 290V060 9SM -SN OVC028 M05/M08 A3018 RMK SLP257=
SPECI CYDL 152308Z AUTO 02007KT 330V060 9SM -SN OVC026 M04/M07 A3016 RMK SLP248=
SPECI CYDL 152303Z AUTO 02006KT 350V050 9SM OVC026 M04/M07 A3016 RMK SLP247=
METAR CYDL 152300Z AUTO 03007KT 330V050 9SM -SN OVC026 M04/M06 A3015 RMK SLP246=

TAF CYDL 152338Z 1600/1603 02007KT P6SM -SN OVC025 TEMPO 1600/1603
3SM -SN OVC020
RMK FCST BASED ON AUTO OBS. NXT FCST WILL BE ISSUED AT 161645Z=
Your time UTC time
Weather data provided by Environment Canada and NAV CANADA